Pagrindinis puslapis
METAR-TAF:

METAR-TAF

Oro uostai :

Rovaniemis, Suomija

platuma: 66-34N, ilguma: 025-50E, Aukštis: 197 m

Dabartinis oras

Ataskaita buvo paskelbta 15 minutes, ne 14:20 UTC
Vėjas 16 kt iš Šiaurės/Šiaurės Rytų
Temperatūra -3°C
Drėgmė 50%
Slėgis 1016 hPa
Matomumas 10 km arba daugiau
Apsiniaukę ne aukštis 4800 ft

METAR: EFRO 201420Z AUTO 02016KT 9999 OVC048 M03/M12 Q1016

Laikas: 17:35 (14:35 UTC)

Prognozė

Ataskaita buvo paskelbta 1 valandą ir 41 minutes, ne 12:54 UTC
Prognozė galioja nuo 20 metu 12 UTC su 21 metu 12 UTC
Vėjas 17 kt iš Šiaurės/Šiaurės Rytų
Matomumas 10 km arba daugiau
Su prošvaistėmis ne aukštis 3000 ft
Laikinai
nuo 20 metu 12 UTC su 20 metu 16 UTC
Vėjas 19 kt iš Šiaurės/Šiaurės Rytų su gūsio iki 29 kt
Tapsmas
nuo 20 metu 18 UTC su 20 metu 20 UTC
Vėjas 7 kt iš Šiaurės/Šiaurės Rytų

TAF: EFRO 201254Z 2012/2112 03017KT 9999 BKN030 TEMPO 2012/2016 03019G29KT BECMG 2018/2020 03007KT

Orai ataskaitas ir orų prognozės (METAR, TAF).

turimą stotys yra geltonos ir raudonos taškus žemėlapyje.

Perkelti pele per norėdami pamatyti stoties vardą.

Tada spustelėkite, norėdami matyti oro stebėjimo ir prognozės.

Norėdami pakeisti žemėlapį: spustelėkite ant žalios mygtukų su juodo kryžiaus žemyn,; žalią mygtuką su brūkšneliu, jei norite nutolinti; arba žalių rodyklių gretimoms žemėlapius.


METAR-TAF: